Monroe, Tennessee
Current Conditions -  °F | °C
As of 4:35 PM on Tuesday 21 Oct 2014 (Local Time) from KSRB Reporting Station
Clear Clear  
Wind Chill: 66°   Ceiling: Unl
Heat Index: 66°   Visibility: 10mi
Dew Point: 48°   Wind: 7mph
Humidity: 52%   Direction: 350°N
Pressure: 30.02"   Gusts: NA
Location:  36.44°N, 85.24°W
Report Text: KSRB 212135Z AUTO 35006KT 10SM CLR 19/09 A3002 RMK
Loading
Personal Weather Stations






























Interactive Weather Map
Tropical Storm Tracking
New forecast layout! Learn more

10-Day Weather Forecast

Advertisements
Track Severe Weather on mobile